NKS1118 KLAX-KORD
Flight info
| Callsign | NKS1118 |
|---|---|
| Flight time | N/A |
| Altitude | 37000 |
| Route | DOTSS2 CLEEE DCT PKE J96 CIM DCT SLN DCT IRK BENKY6 |
| Aircraft | A320/M-SDE3FGHIRWY/LB1 |
Departure
| Time | 2026-05-06 00:14 |
|---|---|
| Airport | Los Angeles International Airport (KLAX) |
Arrival
| Time | N/A |
|---|---|
| Airport | Chicago O'Hare International Airport (KORD) |
| Time | Latitude | Longitude | Altitude | Speed | Heading |
|---|---|---|---|---|---|
| 2026-05-05 23:55 | 33.94142 | -118.39904 | 126 ft | 0 kts | 270° |
| 2026-05-06 00:06 | 33.94143 | -118.39885 | 123 ft | 2 kts | 266° |
| 2026-05-06 00:07 | 33.94144 | -118.39866 | 123 ft | 2 kts | 271° |
| 2026-05-06 00:07 | 33.94145 | -118.39845 | 122 ft | 2 kts | 238° |
| 2026-05-06 00:07 | 33.94158 | -118.39837 | 122 ft | 2 kts | 184° |
| 2026-05-06 00:07 | 33.94159 | -118.39837 | 122 ft | 0 kts | 185° |
| 2026-05-06 00:09 | 33.94158 | -118.39837 | 126 ft | 1 kts | 184° |
| 2026-05-06 00:09 | 33.94138 | -118.39835 | 125 ft | 4 kts | 173° |
| 2026-05-06 00:09 | 33.94101 | -118.39828 | 124 ft | 7 kts | 172° |
| 2026-05-06 00:10 | 33.94028 | -118.39821 | 122 ft | 13 kts | 175° |
| 2026-05-06 00:10 | 33.93937 | -118.39797 | 125 ft | 14 kts | 141° |
| 2026-05-06 00:10 | 33.93913 | -118.39684 | 124 ft | 15 kts | 86° |
| 2026-05-06 00:10 | 33.93923 | -118.39549 | 126 ft | 17 kts | 83° |
| 2026-05-06 00:11 | 33.93941 | -118.39400 | 122 ft | 19 kts | 82° |
| 2026-05-06 00:11 | 33.93957 | -118.39237 | 125 ft | 21 kts | 83° |
| 2026-05-06 00:11 | 33.93973 | -118.39060 | 126 ft | 20 kts | 82° |
| 2026-05-06 00:11 | 33.93992 | -118.38899 | 126 ft | 15 kts | 82° |
| 2026-05-06 00:12 | 33.94001 | -118.38813 | 124 ft | 16 kts | 84° |
| 2026-05-06 00:12 | 33.94013 | -118.38670 | 122 ft | 18 kts | 83° |
| 2026-05-06 00:12 | 33.94031 | -118.38513 | 126 ft | 20 kts | 82° |
| 2026-05-06 00:12 | 33.94048 | -118.38341 | 125 ft | 22 kts | 83° |
| 2026-05-06 00:13 | 33.94073 | -118.38114 | 125 ft | 19 kts | 84° |
| 2026-05-06 00:13 | 33.94077 | -118.38060 | 125 ft | 9 kts | 88° |
| 2026-05-06 00:13 | 33.94029 | -118.37996 | 124 ft | 13 kts | 149° |
| 2026-05-06 00:13 | 33.93981 | -118.38058 | 123 ft | 19 kts | 264° |
| 2026-05-06 00:14 | 33.93937 | -118.38473 | 123 ft | 82 kts | 261° |
| 2026-05-06 00:14 | 33.93849 | -118.39348 | 126 ft | 131 kts | 263° |
| 2026-05-06 00:14 | 33.93724 | -118.40597 | 210 ft | 164 kts | 261° |
| 2026-05-06 00:14 | 33.93582 | -118.41949 | 887 ft | 161 kts | 260° |
| 2026-05-06 00:15 | 33.93457 | -118.43174 | 1981 ft | 139 kts | 261° |
| 2026-05-06 00:15 | 33.93340 | -118.44341 | 2740 ft | 141 kts | 264° |
| 2026-05-06 00:15 | 33.93185 | -118.45518 | 3302 ft | 148 kts | 253° |
| 2026-05-06 00:15 | 33.92663 | -118.46666 | 3518 ft | 171 kts | 233° |
| 2026-05-06 00:16 | 33.91866 | -118.47869 | 3751 ft | 193 kts | 233° |
| 2026-05-06 00:16 | 33.90997 | -118.49189 | 3977 ft | 214 kts | 233° |
| 2026-05-06 00:16 | 33.90004 | -118.50643 | 4299 ft | 234 kts | 231° |
| 2026-05-06 00:16 | 33.88902 | -118.52215 | 4739 ft | 256 kts | 231° |
| 2026-05-06 00:17 | 33.87706 | -118.53863 | 5466 ft | 265 kts | 225° |
| 2026-05-06 00:17 | 33.86167 | -118.55139 | 6245 ft | 275 kts | 205° |
| 2026-05-06 00:17 | 33.84298 | -118.55727 | 7016 ft | 283 kts | 185° |
| 2026-05-06 00:17 | 33.82417 | -118.55548 | 7725 ft | 289 kts | 169° |
| 2026-05-06 00:18 | 33.80432 | -118.55054 | 8506 ft | 294 kts | 167° |
| 2026-05-06 00:18 | 33.78415 | -118.54506 | 9275 ft | 300 kts | 166° |
| 2026-05-06 00:18 | 33.76373 | -118.53933 | 10051 ft | 304 kts | 166° |
| 2026-05-06 00:18 | 33.74309 | -118.53142 | 10392 ft | 322 kts | 153° |
| 2026-05-06 00:19 | 33.72333 | -118.51706 | 10569 ft | 343 kts | 141° |
| 2026-05-06 00:19 | 33.70494 | -118.49739 | 10696 ft | 364 kts | 131° |